createdAt,value
2023-05-07T00:01:15.308Z,56.76
2023-05-07T00:03:44.118Z,56.67
2023-05-07T00:06:13.755Z,56.87
2023-05-07T00:08:41.875Z,56.78
2023-05-07T00:11:10.000Z,56.85
2023-05-07T00:13:38.065Z,56.77
2023-05-07T00:16:08.126Z,57.04
2023-05-07T00:18:36.267Z,56.76
2023-05-07T00:21:04.246Z,56.85
2023-05-07T00:23:32.315Z,56.60
2023-05-07T00:26:00.397Z,56.95
2023-05-07T00:28:28.433Z,56.77
2023-05-07T00:30:56.630Z,56.86
2023-05-07T00:33:27.777Z,57.06
2023-05-07T00:35:56.387Z,56.88
2023-05-07T00:38:24.370Z,56.78
2023-05-07T00:40:52.887Z,56.64
2023-05-07T00:43:21.205Z,56.97
2023-05-07T00:45:51.705Z,57.04
2023-05-07T00:48:20.332Z,57.15
2023-05-07T00:50:50.329Z,57.38
2023-05-07T00:53:18.479Z,57.46
2023-05-07T00:55:46.668Z,57.64
2023-05-07T00:58:14.722Z,57.44
2023-05-07T01:00:42.943Z,57.58
2023-05-07T01:03:10.917Z,57.33
2023-05-07T01:05:39.934Z,57.16
2023-05-07T01:08:09.999Z,57.38
2023-05-07T01:10:37.952Z,57.63
2023-05-07T01:13:08.436Z,57.02
2023-05-07T01:15:36.507Z,57.49
2023-05-07T01:18:04.895Z,57.58
2023-05-07T01:20:32.926Z,57.80
2023-05-07T01:23:03.285Z,57.83
2023-05-07T01:25:31.793Z,57.71
2023-05-07T01:28:01.022Z,57.98
2023-05-07T01:30:30.471Z,57.95
2023-05-07T01:33:04.218Z,57.74
2023-05-07T01:35:38.244Z,57.83
2023-05-07T01:38:08.264Z,57.62
2023-05-07T01:40:36.607Z,57.84
2023-05-07T01:43:05.157Z,57.82
2023-05-07T01:45:34.098Z,57.53
2023-05-07T01:48:02.330Z,58.07
2023-05-07T01:50:30.909Z,57.84
2023-05-07T01:52:59.018Z,57.82
2023-05-07T01:55:28.655Z,57.61
2023-05-07T01:57:56.593Z,57.96
2023-05-07T02:00:25.249Z,57.89
2023-05-07T02:02:54.011Z,57.68
2023-05-07T02:05:22.507Z,57.67
2023-05-07T02:07:50.562Z,57.51
2023-05-07T02:10:18.688Z,57.76
2023-05-07T02:12:48.385Z,57.89
2023-05-07T02:15:16.533Z,57.93
2023-05-07T02:18:02.850Z,57.95
2023-05-07T02:20:31.083Z,57.85
2023-05-07T02:22:58.993Z,57.64
2023-05-07T02:25:26.938Z,57.77
2023-05-07T02:27:56.301Z,57.66
2023-05-07T02:30:24.794Z,57.80
2023-05-07T02:32:52.744Z,57.74
2023-05-07T02:35:20.928Z,57.61
2023-05-07T02:37:48.908Z,57.49
2023-05-07T02:40:16.777Z,57.16
2023-05-07T02:42:44.757Z,57.58
2023-05-07T02:45:15.473Z,57.45
2023-05-07T02:47:43.448Z,57.69
2023-05-07T02:50:12.202Z,57.75
2023-05-07T02:52:40.548Z,57.93
2023-05-07T02:55:09.341Z,57.81
2023-05-07T02:57:37.416Z,57.87
2023-05-07T03:00:15.914Z,57.89
2023-05-07T03:02:44.148Z,57.76
2023-05-07T03:05:12.894Z,57.82
2023-05-07T03:07:40.985Z,57.82
2023-05-07T03:10:09.851Z,57.74
2023-05-07T03:12:38.077Z,58.00
2023-05-07T03:15:06.796Z,57.76
2023-05-07T03:17:37.395Z,57.74
2023-05-07T03:20:06.510Z,57.71
2023-05-07T03:22:35.370Z,57.86
2023-05-07T03:25:03.396Z,57.74
2023-05-07T03:27:31.451Z,57.79
2023-05-07T03:29:59.400Z,57.59
2023-05-07T03:32:27.477Z,57.77
2023-05-07T03:34:56.919Z,57.65
2023-05-07T03:37:24.885Z,57.58
2023-05-07T03:39:52.846Z,57.55
2023-05-07T03:42:21.118Z,57.58
2023-05-07T03:44:49.125Z,57.65
2023-05-07T03:47:17.015Z,57.93
2023-05-07T03:49:44.930Z,57.67
2023-05-07T03:52:14.423Z,57.67
2023-05-07T03:54:42.333Z,57.55
2023-05-07T03:57:10.230Z,57.54
2023-05-07T03:59:38.248Z,57.59
2023-05-07T04:02:06.272Z,57.55
2023-05-07T04:04:34.285Z,57.56
2023-05-07T04:07:02.712Z,57.67
2023-05-07T04:09:32.247Z,57.70
2023-05-07T04:12:00.243Z,57.54
2023-05-07T04:14:28.211Z,57.29
2023-05-07T04:16:56.379Z,57.32
2023-05-07T04:19:24.360Z,57.34
2023-05-07T04:21:52.422Z,57.35
2023-05-07T04:24:20.441Z,57.40
2023-05-07T04:26:49.964Z,57.25
2023-05-07T04:29:18.032Z,57.25
2023-05-07T04:31:46.184Z,57.14
2023-05-07T04:34:15.291Z,57.23
2023-05-07T04:36:44.478Z,57.45
2023-05-07T04:39:12.754Z,57.31
2023-05-07T04:41:40.841Z,57.09
2023-05-07T04:44:10.397Z,56.95
2023-05-07T04:46:38.353Z,56.88
2023-05-07T04:49:06.866Z,57.22
2023-05-07T04:51:34.879Z,56.89
2023-05-07T04:54:02.891Z,57.20
2023-05-07T04:56:31.212Z,57.11
2023-05-07T04:58:59.276Z,56.92
2023-05-07T05:01:28.804Z,57.15
2023-05-07T05:03:56.982Z,57.18
2023-05-07T05:06:25.047Z,56.84
2023-05-07T05:08:53.075Z,56.94
2023-05-07T05:11:22.247Z,56.95
2023-05-07T05:13:52.229Z,56.79
2023-05-07T05:16:20.496Z,56.76
2023-05-07T05:18:50.141Z,57.01
2023-05-07T05:21:18.115Z,57.09
2023-05-07T05:23:46.410Z,56.88
2023-05-07T05:26:14.496Z,57.08
2023-05-07T05:28:42.547Z,56.89
2023-05-07T05:31:10.589Z,56.94
2023-05-07T05:33:38.628Z,56.82
2023-05-07T05:36:11.521Z,56.62
2023-05-07T05:38:39.643Z,56.92
2023-05-07T05:41:08.151Z,56.86
2023-05-07T05:43:36.351Z,56.83
2023-05-07T05:46:07.330Z,56.81
2023-05-07T05:48:35.571Z,56.92
2023-05-07T05:51:03.672Z,56.92
2023-05-07T05:53:33.302Z,56.65
2023-05-07T05:56:13.239Z,56.58
2023-05-07T05:58:49.865Z,56.89
2023-05-07T06:01:18.084Z,56.64
2023-05-07T06:04:00.504Z,56.98
2023-05-07T06:06:29.306Z,56.80
2023-05-07T06:08:59.089Z,56.80
2023-05-07T06:11:28.904Z,56.60
2023-05-07T06:13:57.011Z,56.65
2023-05-07T06:16:25.179Z,56.30
2023-05-07T06:18:53.272Z,56.28
2023-05-07T06:21:21.211Z,56.33
2023-05-07T06:23:49.412Z,56.27
2023-05-07T06:26:18.921Z,56.29
2023-05-07T06:28:46.930Z,56.55
2023-05-07T06:31:16.839Z,56.10
2023-05-07T06:33:46.254Z,56.27
2023-05-07T06:36:14.433Z,56.21
2023-05-07T06:38:42.371Z,56.00
2023-05-07T06:41:10.672Z,55.75
2023-05-07T06:43:40.074Z,55.97
2023-05-07T06:46:08.558Z,55.79
2023-05-07T06:48:36.596Z,55.93
2023-05-07T06:51:04.717Z,55.68
2023-05-07T06:53:33.012Z,55.87
2023-05-07T06:56:01.051Z,55.68
2023-05-07T06:58:29.093Z,55.45
2023-05-07T07:00:59.725Z,55.74
2023-05-07T07:03:27.702Z,55.42
2023-05-07T07:05:55.919Z,55.41
2023-05-07T07:08:24.450Z,55.09
2023-05-07T07:10:52.580Z,55.46
2023-05-07T07:13:20.756Z,55.49
2023-05-07T07:15:48.836Z,55.22
2023-05-07T07:18:18.359Z,55.20
2023-05-07T07:20:46.777Z,55.19
2023-05-07T07:23:14.949Z,55.56
2023-05-07T07:25:43.180Z,55.46
2023-05-07T07:28:12.497Z,55.16
2023-05-07T07:30:40.860Z,55.13
2023-05-07T07:33:09.227Z,55.20
2023-05-07T07:35:38.753Z,54.88
2023-05-07T07:38:06.827Z,54.64
2023-05-07T07:40:37.256Z,55.18
2023-05-07T07:43:05.974Z,54.83
2023-05-07T07:45:34.034Z,54.65
2023-05-07T07:48:02.152Z,54.38
2023-05-07T07:50:43.413Z,54.57
2023-05-07T07:53:15.031Z,54.63
2023-05-07T07:55:43.366Z,54.62
2023-05-07T07:58:11.434Z,54.75
2023-05-07T08:00:39.402Z,54.70
2023-05-07T08:03:08.517Z,54.55
2023-05-07T08:05:37.352Z,53.86
2023-05-07T08:08:05.983Z,53.37
2023-05-07T08:10:39.443Z,53.49
2023-05-07T08:13:07.627Z,53.39
2023-05-07T08:15:35.923Z,53.60
2023-05-07T08:18:04.514Z,53.27
2023-05-07T08:20:32.982Z,53.17
2023-05-07T08:23:01.099Z,53.35
2023-05-07T08:25:29.076Z,53.18
2023-05-07T08:27:58.731Z,53.11
2023-05-07T08:30:27.215Z,52.75
2023-05-07T08:32:55.491Z,53.24
2023-05-07T08:35:24.003Z,53.70
2023-05-07T08:37:51.985Z,53.79
2023-05-07T08:40:20.231Z,53.57
2023-05-07T08:42:51.319Z,53.61
2023-05-07T08:45:25.060Z,53.58
2023-05-07T08:47:57.766Z,53.27
2023-05-07T08:50:26.349Z,53.19
2023-05-07T08:52:54.661Z,52.80
2023-05-07T08:55:22.960Z,52.06
2023-05-07T08:57:51.189Z,51.18
2023-05-07T09:00:21.062Z,51.89
2023-05-07T09:02:49.363Z,51.50
2023-05-07T09:05:17.421Z,50.97
2023-05-07T09:07:45.588Z,50.43
2023-05-07T09:10:14.209Z,49.72
2023-05-07T09:12:42.419Z,49.00
2023-05-07T09:15:13.120Z,49.38
2023-05-07T09:17:43.597Z,49.20
2023-05-07T09:20:12.329Z,49.33
2023-05-07T09:22:40.643Z,49.60
2023-05-07T09:25:10.492Z,49.36
2023-05-07T09:27:39.437Z,49.23
2023-05-07T09:30:10.190Z,49.52
2023-05-07T09:32:40.207Z,49.89
2023-05-07T09:35:17.576Z,50.00
2023-05-07T09:37:46.109Z,49.77
2023-05-07T09:40:23.108Z,48.50
2023-05-07T09:42:51.919Z,48.58
2023-05-07T09:45:24.705Z,48.65
2023-05-07T09:50:29.867Z,47.65
2023-05-07T09:52:59.374Z,46.08
2023-05-07T09:55:28.091Z,46.01
2023-05-07T09:57:56.759Z,46.41
2023-05-07T10:00:25.070Z,45.42
2023-05-07T10:02:54.722Z,45.23
2023-05-07T10:05:26.249Z,44.96
2023-05-07T10:07:55.205Z,44.78
2023-05-07T10:10:24.209Z,44.99
2023-05-07T10:12:53.053Z,45.26
2023-05-07T10:15:21.214Z,45.33
2023-05-07T10:17:50.590Z,45.38
2023-05-07T10:20:18.623Z,46.16
2023-05-07T10:22:49.757Z,46.62
2023-05-07T10:25:25.135Z,46.85
2023-05-07T10:27:56.539Z,46.86
2023-05-07T10:30:38.077Z,46.62
2023-05-07T10:33:10.323Z,46.98
2023-05-07T10:35:41.719Z,46.25
2023-05-07T10:38:11.766Z,46.15
2023-05-07T10:40:40.096Z,46.17
2023-05-07T10:43:10.879Z,46.36
2023-05-07T10:45:39.119Z,46.48
2023-05-07T10:48:29.770Z,46.38
2023-05-07T10:51:23.416Z,46.51
2023-05-07T10:54:23.054Z,46.38
2023-05-07T10:56:52.286Z,46.19
2023-05-07T10:59:35.081Z,46.45
2023-05-07T11:02:05.619Z,45.31
2023-05-07T11:04:36.349Z,45.47
2023-05-07T11:07:37.965Z,44.27
2023-05-07T11:10:09.161Z,44.28
2023-05-07T11:12:54.517Z,43.93
2023-05-07T11:15:45.293Z,43.81
2023-05-07T11:18:14.756Z,42.49
2023-05-07T11:20:57.278Z,42.26
2023-05-07T11:24:02.394Z,42.46
2023-05-07T11:26:43.283Z,41.85
2023-05-07T11:29:14.031Z,41.56
2023-05-07T11:31:42.378Z,41.06
2023-05-07T11:34:11.022Z,41.16
2023-05-07T11:36:45.372Z,41.18
2023-05-07T11:39:27.313Z,40.99
2023-05-07T11:41:58.421Z,41.16
2023-05-07T11:44:26.468Z,41.54
2023-05-07T11:46:54.932Z,42.08
2023-05-07T11:49:23.375Z,41.98
2023-05-07T11:51:51.612Z,42.54
2023-05-07T11:54:19.741Z,42.03
2023-05-07T11:56:49.145Z,42.44
2023-05-07T11:59:21.580Z,42.70
2023-05-07T12:01:50.385Z,42.85
2023-05-07T12:04:23.127Z,43.08
2023-05-07T12:06:52.134Z,42.80
2023-05-07T12:09:20.483Z,42.58
2023-05-07T12:11:48.978Z,42.42
2023-05-07T12:14:18.168Z,43.04
2023-05-07T12:16:48.715Z,43.06
2023-05-07T12:19:17.263Z,43.22
2023-05-07T12:21:45.806Z,43.38
2023-05-07T12:24:14.115Z,42.65
2023-05-07T12:26:43.228Z,42.16
2023-05-07T12:29:11.725Z,41.83
2023-05-07T12:31:43.713Z,42.22
2023-05-07T12:34:15.095Z,42.62
2023-05-07T12:36:43.930Z,42.44
2023-05-07T12:39:12.526Z,42.29
2023-05-07T12:41:55.705Z,42.85
2023-05-07T12:44:25.753Z,42.36
2023-05-07T12:46:54.096Z,42.00
2023-05-07T12:49:26.082Z,42.21
2023-05-07T12:51:55.503Z,41.72
2023-05-07T12:54:33.635Z,41.93
2023-05-07T12:57:05.927Z,41.42
2023-05-07T12:59:35.395Z,40.82
2023-05-07T13:02:03.669Z,41.16
2023-05-07T13:04:33.771Z,40.87
2023-05-07T13:07:02.226Z,41.80
2023-05-07T13:09:30.390Z,43.13
2023-05-07T13:12:01.070Z,43.32
2023-05-07T13:14:29.378Z,40.78
2023-05-07T13:16:57.879Z,41.95
2023-05-07T13:19:26.534Z,41.18
2023-05-07T13:21:56.210Z,39.35
2023-05-07T13:24:24.207Z,37.69
2023-05-07T13:26:52.290Z,36.90
2023-05-07T13:29:20.411Z,37.14
2023-05-07T13:31:49.795Z,35.53
2023-05-07T13:34:18.379Z,36.04
2023-05-07T13:36:46.471Z,34.55
2023-05-07T13:39:16.998Z,34.31
2023-05-07T13:41:45.086Z,33.69
2023-05-07T13:44:13.221Z,34.98
2023-05-07T13:46:41.231Z,33.25
2023-05-07T13:49:09.261Z,31.86
2023-05-07T13:51:37.350Z,31.77
2023-05-07T13:54:05.754Z,32.25
2023-05-07T13:56:35.236Z,33.03
2023-05-07T13:59:03.324Z,31.34
2023-05-07T14:01:31.471Z,31.35
2023-05-07T14:04:00.713Z,31.77
2023-05-07T14:06:29.048Z,31.17
2023-05-07T14:08:59.310Z,31.36
2023-05-07T14:11:27.555Z,30.03
2023-05-07T14:13:57.973Z,30.38
2023-05-07T14:16:26.263Z,29.81
2023-05-07T14:18:57.819Z,30.27
2023-05-07T14:21:26.871Z,29.59
2023-05-07T14:23:55.098Z,30.56
2023-05-07T14:26:24.371Z,31.24
2023-05-07T14:28:52.420Z,30.92
2023-05-07T14:31:22.073Z,30.08
2023-05-07T14:33:50.925Z,31.23
2023-05-07T14:36:21.088Z,33.08
2023-05-07T14:38:49.817Z,33.58
2023-05-07T14:41:18.339Z,33.49
2023-05-07T14:43:51.085Z,33.87
2023-05-07T14:46:19.871Z,33.49
2023-05-07T14:48:49.471Z,33.85
2023-05-07T14:51:17.620Z,32.74
2023-05-07T14:53:46.225Z,32.74
2023-05-07T14:56:14.435Z,33.27
2023-05-07T14:58:42.770Z,33.54
2023-05-07T15:01:10.922Z,34.00
2023-05-07T15:03:39.176Z,34.52
2023-05-07T15:06:09.526Z,35.38
2023-05-07T15:08:37.827Z,36.05
2023-05-07T15:11:05.935Z,36.67
2023-05-07T15:13:34.355Z,37.33
2023-05-07T15:16:02.579Z,38.48
2023-05-07T15:18:30.704Z,37.75
2023-05-07T15:20:59.848Z,37.62
2023-05-07T15:23:29.604Z,36.46
2023-05-07T15:25:58.504Z,36.03
2023-05-07T15:28:26.803Z,36.42
2023-05-07T15:30:56.289Z,37.05
2023-05-07T15:33:24.980Z,37.45
2023-05-07T15:35:53.043Z,37.83
2023-05-07T15:38:21.253Z,37.66
2023-05-07T15:40:51.161Z,38.02
2023-05-07T15:43:19.705Z,38.42
2023-05-07T15:45:47.881Z,38.34
2023-05-07T15:48:16.069Z,37.60
2023-05-07T15:50:44.530Z,37.31
2023-05-07T15:53:14.066Z,37.20
2023-05-07T15:55:44.579Z,37.53
2023-05-07T15:58:14.358Z,37.75
2023-05-07T16:00:42.964Z,38.10
2023-05-07T16:03:11.209Z,38.08
2023-05-07T16:05:39.938Z,38.59
2023-05-07T16:08:08.732Z,38.36
2023-05-07T16:10:36.835Z,38.58
2023-05-07T16:13:05.024Z,38.63
2023-05-07T16:15:35.196Z,38.70
2023-05-07T16:18:03.366Z,38.76
2023-05-07T16:20:31.702Z,39.14
2023-05-07T16:22:59.952Z,39.43
2023-05-07T16:25:28.059Z,38.92
2023-05-07T16:27:57.025Z,39.31
2023-05-07T16:30:25.734Z,39.77
2023-05-07T16:32:55.579Z,40.57
2023-05-07T16:35:23.766Z,41.04
2023-05-07T16:37:52.114Z,41.76
2023-05-07T16:40:20.432Z,41.63
2023-05-07T16:42:48.667Z,41.68
2023-05-07T16:45:17.250Z,41.64
2023-05-07T16:47:45.651Z,41.96
2023-05-07T16:52:43.842Z,41.79
2023-05-07T16:55:12.962Z,41.75
2023-05-07T16:57:41.300Z,41.38
2023-05-07T17:00:11.821Z,41.72
2023-05-07T17:02:40.149Z,41.83
2023-05-07T17:05:09.275Z,41.83
2023-05-07T17:07:39.629Z,41.88
2023-05-07T17:10:09.088Z,42.13
2023-05-07T17:12:37.739Z,42.37
2023-05-07T17:15:07.139Z,42.18
2023-05-07T17:17:35.349Z,42.80
2023-05-07T17:20:03.800Z,43.21
2023-05-07T17:22:31.870Z,43.24
2023-05-07T17:25:03.683Z,43.36
2023-05-07T17:27:32.492Z,43.53
2023-05-07T17:30:00.550Z,43.51
2023-05-07T17:32:29.557Z,43.35
2023-05-07T17:34:57.699Z,43.60
2023-05-07T17:37:25.796Z,43.46
2023-05-07T17:39:54.782Z,43.31
2023-05-07T17:42:24.660Z,43.34
2023-05-07T17:44:53.039Z,42.98
2023-05-07T17:47:21.162Z,42.83
2023-05-07T17:49:49.428Z,42.83
2023-05-07T17:52:17.598Z,42.80
2023-05-07T17:54:45.779Z,42.61
2023-05-07T17:57:14.294Z,41.77
2023-05-07T17:59:44.208Z,41.42
2023-05-07T18:02:12.422Z,41.51
2023-05-07T18:04:40.532Z,41.62
2023-05-07T18:07:08.897Z,41.36
2023-05-07T18:12:36.651Z,40.64
2023-05-07T18:15:08.098Z,40.56
2023-05-07T18:17:36.852Z,39.74
2023-05-07T18:20:06.562Z,40.02
2023-05-07T18:28:30.457Z,40.10
2023-05-07T18:31:00.531Z,39.13
2023-05-07T18:33:29.080Z,38.96
2023-05-07T18:36:15.261Z,38.38
2023-05-07T18:38:45.246Z,36.47
2023-05-07T18:41:15.090Z,34.85
2023-05-07T18:43:45.398Z,34.66
2023-05-07T18:46:17.187Z,35.21
2023-05-07T18:48:47.601Z,35.85
2023-05-07T18:51:17.120Z,36.10
2023-05-07T18:53:48.033Z,36.36
2023-05-07T18:56:17.703Z,36.68
2023-05-07T18:58:46.647Z,37.22
2023-05-07T19:01:17.133Z,37.53
2023-05-07T19:03:46.032Z,37.69
2023-05-07T19:06:15.379Z,37.86
2023-05-07T19:08:44.280Z,38.13
2023-05-07T19:11:13.330Z,38.27
2023-05-07T19:13:41.359Z,38.19
2023-05-07T19:16:12.589Z,38.63
2023-05-07T19:18:43.789Z,38.85
2023-05-07T19:23:43.753Z,39.16
2023-05-07T19:26:13.043Z,39.33
2023-05-07T19:28:45.500Z,39.52
2023-05-07T19:31:22.074Z,39.80
2023-05-07T19:33:52.245Z,40.22
2023-05-07T19:36:20.873Z,40.21
2023-05-07T19:38:50.454Z,40.55
2023-05-07T19:41:18.720Z,40.62
2023-05-07T19:43:46.825Z,40.83
2023-05-07T19:46:16.722Z,40.98
2023-05-07T19:48:45.812Z,41.25
2023-05-07T19:51:15.404Z,41.43
2023-05-07T19:53:45.063Z,41.38
2023-05-07T19:56:15.088Z,41.63
2023-05-07T19:58:46.244Z,41.70
2023-05-07T20:01:15.405Z,41.90
2023-05-07T20:03:43.654Z,41.98
2023-05-07T20:06:12.540Z,42.14
2023-05-07T20:08:43.438Z,42.42
2023-05-07T20:11:13.584Z,42.57
2023-05-07T20:13:41.839Z,42.66
2023-05-07T20:16:11.212Z,43.11
2023-05-07T20:18:39.491Z,43.08
2023-05-07T20:21:08.089Z,43.24
2023-05-07T20:23:36.417Z,43.38
2023-05-07T20:26:06.024Z,43.46
2023-05-07T20:28:34.972Z,43.99
2023-05-07T20:31:03.742Z,43.81
2023-05-07T20:33:32.140Z,43.85
2023-05-07T20:36:00.425Z,44.32
2023-05-07T20:38:30.641Z,44.39
2023-05-07T20:40:59.051Z,44.51
2023-05-07T20:43:29.345Z,44.78
2023-05-07T20:46:01.052Z,44.75
2023-05-07T20:48:30.947Z,44.78
2023-05-07T20:51:00.147Z,45.08
2023-05-07T20:53:29.484Z,45.24
2023-05-07T20:55:58.335Z,45.26
2023-05-07T20:58:29.355Z,45.36
2023-05-07T21:00:57.912Z,45.58
2023-05-07T21:03:26.120Z,45.61
2023-05-07T21:05:56.152Z,45.80
2023-05-07T21:08:25.148Z,45.86
2023-05-07T21:10:58.495Z,45.80
2023-05-07T21:13:28.661Z,45.98
2023-05-07T21:15:57.280Z,46.00
2023-05-07T21:18:26.943Z,46.25
2023-05-07T21:20:55.556Z,46.42
2023-05-07T21:23:23.926Z,46.29
2023-05-07T21:26:25.187Z,46.58
2023-05-07T21:29:01.659Z,46.85
2023-05-07T21:31:30.345Z,46.84
2023-05-07T21:33:58.709Z,47.11
2023-05-07T21:36:27.503Z,47.67
2023-05-07T21:38:55.662Z,47.45
2023-05-07T21:41:24.161Z,47.71
2023-05-07T21:43:52.709Z,48.10
2023-05-07T21:46:22.558Z,48.28
2023-05-07T21:48:50.612Z,48.47
2023-05-07T21:51:18.948Z,48.69
2023-05-07T21:53:48.086Z,48.88
2023-05-07T21:56:16.329Z,48.82
2023-05-07T21:58:44.591Z,49.12
2023-05-07T22:01:13.184Z,49.31
2023-05-07T22:03:43.011Z,49.70
2023-05-07T22:06:11.161Z,49.88
2023-05-07T22:08:39.459Z,50.15
2023-05-07T22:11:07.819Z,50.30
2023-05-07T22:13:36.023Z,50.19
2023-05-07T22:16:04.243Z,50.59
2023-05-07T22:18:32.462Z,50.68
2023-05-07T22:21:02.253Z,50.88
2023-05-07T22:23:30.552Z,50.96
2023-05-07T22:25:58.623Z,51.11
2023-05-07T22:28:26.997Z,51.13
2023-05-07T22:30:57.576Z,51.37
2023-05-07T22:33:28.513Z,51.01
2023-05-07T22:35:57.276Z,51.15
2023-05-07T22:38:27.488Z,51.24
2023-05-07T22:40:56.436Z,51.46
2023-05-07T22:43:27.339Z,51.28
2023-05-07T22:46:01.605Z,51.60
2023-05-07T22:48:30.551Z,51.37
2023-05-07T22:50:59.409Z,51.25
2023-05-07T22:53:31.522Z,51.71
2023-05-07T22:56:00.060Z,51.34
2023-05-07T22:58:28.759Z,51.60
2023-05-07T23:01:01.702Z,51.40
2023-05-07T23:06:24.960Z,51.48
2023-05-07T23:08:56.007Z,51.20
2023-05-07T23:11:24.786Z,51.29
2023-05-07T23:13:53.640Z,51.58
2023-05-07T23:16:22.219Z,51.50
2023-05-07T23:18:50.672Z,51.47
2023-05-07T23:21:19.236Z,51.37
2023-05-07T23:23:49.585Z,51.38
2023-05-07T23:26:20.969Z,51.48
2023-05-07T23:28:49.334Z,51.17
2023-05-07T23:31:21.045Z,51.33
2023-05-07T23:33:53.814Z,51.46
2023-05-07T23:36:22.279Z,51.42
2023-05-07T23:38:51.206Z,51.36
2023-05-07T23:41:21.817Z,51.37
2023-05-07T23:43:50.647Z,51.68
2023-05-07T23:46:25.730Z,51.37
2023-05-07T23:49:03.426Z,51.26
2023-05-07T23:51:32.486Z,51.26
2023-05-07T23:54:00.843Z,51.39
2023-05-07T23:56:30.867Z,51.52
2023-05-07T23:59:11.578Z,51.29
